Latest Weather Observations for Cooma Airport

IDN60801

Issued at 2:02 pm EST Sunday 2 August 2015 (issued every 30 minutes, with the page automatically refreshed every 10 minutes)

About weather observations | Map of weather stations | Latest weather observations for NSW | Other Formats
Station Details ID: 070217 Name: COOMA AIRPORT AWS Lat: -36.29 Lon: 148.97 Height: 930.0 m
Data from the previous 72 hours. | See also: Recent months for locations in New South Wales
Date/Time
EST
Temp
°C
App
Temp
°C
Dew
Point
Rel
Hum
%
Delta-T
°C
Wind Press
QNH
hPa
Press
MSL
hPa
Rain
since 9 am
mm
Dir
 
Spd
km/h
Gust
km/h
Spd
kts
Gust
kts
02/02:00pm 10.4 3.9 4.5 67 2.8 W 28 41 15 22 1008.8 1009.8 1.0
02/01:30pm 9.8 3.8 5.2 73 2.2 WNW 26 41 14 22 1008.8 1009.8 1.0
02/01:00pm 9.1 4.3 5.5 78 1.7 WNW 20 30 11 16 1009.0 1010.0 1.0
02/12:30pm 9.2 5.3 7.0 86 1.1 NW 17 24 9 13 1008.7 1009.6 1.0
02/12:00pm 8.5 4.4 6.1 85 1.2 NW 17 26 9 14 1009.5 1010.5 0.8
02/11:30am 9.1 2.8 5.7 79 1.6 NW 28 43 15 23 1010.4 1011.4 0.4
02/11:14am 9.6 3.5 6.5 81 1.5 NW 28 46 15 25 1010.2 1011.2 0.2
02/11:00am 10.0 5.0 6.3 78 1.8 NW 22 35 12 19 1009.7 1010.6 0.2
02/10:30am 11.0 5.7 6.9 76 2.1 NW 24 41 13 22 1010.0 1011.0 0.2
02/10:00am 10.3 3.8 6.5 77 1.9 NW 30 48 16 26 1010.4 1011.4 0.2
02/09:30am 9.9 2.4 6.1 77 1.9 NW 35 54 19 29 1010.6 1011.7 0.0
02/09:00am 10.6 3.3 4.7 67 2.8 NW 32 50 17 27 1010.5 1011.5 0.2
02/08:51am 10.8 4.3 4.9 67 2.8 NW 28 46 15 25 1010.5 1011.5 0.2
02/08:30am 10.6 5.0 5.2 69 2.6 NW 24 37 13 20 1010.7 1011.8 0.2
02/08:00am 9.8 4.1 5.0 72 2.3 NW 24 35 13 19 1010.5 1011.5 0.2
02/07:30am 8.6 3.6 4.8 77 1.8 NW 20 35 11 19 1011.0 1012.0 0.2
02/07:00am 8.5 3.7 4.9 78 1.7 NNW 19 30 10 16 1010.7 1011.8 0.2
02/06:30am 8.8 2.4 5.0 77 1.8 NW 28 48 15 26 1011.0 1012.0 0.2
02/06:29am 8.9 2.1 5.1 77 1.8 NW 30 48 16 26 1011.0 1012.0 0.2
02/05:30am 8.8 2.5 5.5 80 1.6 NNW 28 37 15 20 1011.4 1012.4 0.2
02/05:00am 8.3 3.1 5.6 83 1.3 NNW 22 33 12 18 1011.7 1012.8 0.2
02/04:30am 7.9 3.6 5.4 84 1.2 NNW 17 28 9 15 1012.6 1013.7 0.2
02/04:00am 7.8 3.5 5.1 83 1.3 NNW 17 28 9 15 1012.6 1013.7 0.2
02/03:30am 7.7 2.7 4.8 82 1.4 NW 20 33 11 18 1013.2 1014.2 0.2
02/03:00am 7.8 3.4 4.7 81 1.4 NNW 17 28 9 15 1013.8 1014.9 0.2
02/02:30am 7.6 2.6 4.6 81 1.4 NW 20 30 11 16 1014.2 1015.4 0.2
02/02:00am 7.6 2.8 4.6 81 1.4 NW 19 28 10 15 1014.2 1015.4 0.2
02/01:30am 6.9 2.7 4.0 82 1.3 NNW 15 20 8 11 1014.4 1015.5 0.2
02/01:00am 6.9 2.8 4.6 85 1.1 NNW 15 24 8 13 1014.8 1015.9 0.2
02/12:30am 6.3 3.0 4.5 88 0.8 NNW 11 17 6 9 1014.7 1015.8 0.2
02/12:00am 5.0 2.6 4.3 95 0.3 N 6 7 3 4 1014.7 1015.8 0.2
 
Date/Time
EST
Temp
°C
App
Temp
°C
Dew
Point
Rel
Hum
%
Delta-T
°C
Wind Press
QNH
hPa
Press
MSL
hPa
Rain
since 9 am
mm
Dir
 
Spd
km/h
Gust
km/h
Spd
kts
Gust
kts
01/11:30pm 5.8 4.7 5.2 96 0.3 CALM 0 0 0 0 1015.1 1016.2 0.2
01/11:00pm 6.2 3.9 5.9 98 0.1 N 7 9 4 5 1014.9 1016.0 0.2
01/10:30pm 5.9 4.9 5.5 97 0.2 CALM 0 9 0 5 1015.2 1016.4 0.0
01/10:00pm 6.1 4.7 5.4 95 0.3 NNE 2 6 1 3 1015.3 1016.5 0.0
01/09:30pm 6.5 5.2 5.8 95 0.3 W 2 9 1 5 1015.3 1016.5 0.0
01/09:00pm 6.4 3.7 5.4 93 0.5 SW 9 11 5 6 1015.7 1016.8 0.0
01/08:30pm 6.6 4.3 4.9 89 0.8 SW 6 9 3 5 1015.7 1016.8 0.0
01/08:00pm 7.5 3.9 4.8 83 1.3 S 13 15 7 8 1015.5 1016.6 0.0
01/07:30pm 8.7 4.7 4.7 76 1.9 WNW 15 20 8 11 1014.7 1015.8 0.0
01/07:00pm 9.6 4.8 4.4 70 2.4 WNW 19 26 10 14 1014.6 1015.7 0.0
01/06:30pm 9.3 5.6 4.3 71 2.3 NW 13 19 7 10 1014.2 1015.4 0.0
01/06:00pm 9.5 5.5 4.7 72 2.3 WNW 15 20 8 11 1014.1 1015.2 0.0
01/05:30pm 10.2 5.8 4.8 69 2.6 NW 17 24 9 13 1013.9 1015.0 0.0
01/05:00pm 10.9 5.9 3.7 61 3.4 WNW 19 28 10 15 1013.3 1014.3 0.0
01/04:30pm 10.9 5.3 3.7 61 3.4 W 22 33 12 18 1012.3 1013.3 0.0
01/04:00pm 11.2 5.6 3.7 60 3.5 WNW 22 30 12 16 1012.3 1013.3 0.0
01/03:30pm 10.6 5.4 3.6 62 3.3 WNW 20 32 11 17 1012.2 1013.2 0.0
01/03:07pm 10.5 3.7 3.3 61 3.3 WNW 28 46 15 25 1011.6 1012.7 0.0
01/03:00pm 10.6 3.4 3.2 60 3.4 NW 30 46 16 25 1011.7 1012.8 0.0
01/02:58pm 10.6 3.8 3.2 60 3.4 NW 28 46 15 25 1011.7 1012.8 0.0
01/02:30pm 10.9 4.5 3.0 58 3.6 NW 26 35 14 19 1012.5 1013.6 0.0
01/02:00pm 11.7 6.1 3.7 58 3.8 WNW 22 35 12 19 1012.5 1013.6 0.0
01/01:31pm 12.2 5.5 3.4 55 4.1 WNW 28 48 15 26 1011.7 1012.8 0.0
01/01:30pm 12.3 6.0 3.5 55 4.1 WNW 26 46 14 25 1011.7 1012.8 0.0
01/01:00pm 13.1 6.1 4.0 54 4.4 WNW 30 46 16 25 1011.5 1012.6 0.0
01/12:58pm 13.0 6.3 3.9 54 4.3 WNW 28 46 15 25 1011.4 1012.4 0.0
01/12:30pm 12.6 6.0 4.1 56 4.1 WNW 28 43 15 23 1011.3 1012.3 0.0
01/12:00pm 13.5 5.4 3.3 50 4.8 WNW 35 54 19 29 1011.5 1012.6 0.0
01/11:30am 11.9 5.1 2.9 54 4.2 WNW 28 48 15 26 1012.1 1013.1 0.0
01/11:00am 11.2 2.8 3.7 60 3.5 WNW 37 59 20 32 1012.6 1013.7 0.0
01/10:34am 10.6 2.6 3.9 63 3.1 W 35 56 19 30 1012.4 1013.4 0.0
01/10:30am 10.5 2.9 4.0 64 3.0 W 33 50 18 27 1012.5 1013.6 0.0
01/10:05am 10.2 3.6 4.1 66 2.9 W 28 46 15 25 1012.7 1013.8 0.0
01/10:00am 10.1 3.1 4.0 66 2.9 WNW 30 46 16 25 1012.6 1013.7 0.0
01/09:43am 10.5 3.9 4.2 65 3.0 WNW 28 46 15 25 1012.5 1014.0 0.0
01/09:30am 10.8 5.8 3.8 62 3.3 NW 19 30 10 16 1012.4 1013.9 0.0
01/09:00am 10.6 5.4 2.7 58 3.6 NW 19 30 10 16 1012.5 1014.0 0.0
01/08:30am 10.1 4.3 2.5 59 3.4 WNW 22 35 12 19 1012.6 1014.1 0.0
01/08:06am 9.8 2.8 2.2 59 3.4 WNW 28 46 15 25 1012.8 1014.3 0.0
01/08:00am 9.7 4.4 2.1 59 3.4 NNW 19 35 10 19 1012.7 1014.2 0.0
01/07:30am 9.3 4.9 2.9 64 2.9 NW 15 32 8 17 1012.6 1014.1 0.0
01/07:00am 8.9 4.2 2.9 66 2.7 WNW 17 41 9 22 1012.8 1014.3 0.0
01/06:30am 8.6 5.0 2.8 67 2.6 NW 11 22 6 12 1012.9 1014.4 0.0
01/06:00am 8.0 5.6 2.0 66 2.6 NNW 4 11 2 6 1013.0 1014.6 0.0
01/05:30am 7.9 3.4 2.0 66 2.6 NW 15 22 8 12 1013.2 1014.7 0.0
01/05:00am 6.8 3.1 2.1 72 2.0 NNE 11 17 6 9 1013.7 1015.2 0.0
01/04:30am 6.7 2.9 1.6 70 2.2 N 11 17 6 9 1013.8 1015.3 0.0
01/04:00am 6.9 1.3 1.2 67 2.4 N 20 32 11 17 1014.6 1016.1 0.0
01/03:30am 6.0 -1.2 0.6 68 2.2 N 28 39 15 21 1014.6 1016.1 0.0
01/03:00am 6.1 -2.9 0.4 67 2.4 NNW 37 48 20 26 1015.3 1016.9 0.0
01/02:30am 5.9 -3.4 0.3 67 2.3 NNW 39 54 21 29 1015.5 1017.0 0.0
01/02:18am 5.8 -1.5 0.2 67 2.3 NNW 28 48 15 26 1015.7 1017.2 0.0
01/02:00am 5.5 -0.3 -0.1 67 2.3 N 20 33 11 18 1016.3 1017.9 0.0
01/01:30am 5.9 0.1 0.0 66 2.4 NNW 20 30 11 16 1016.9 1018.5 0.0
01/01:00am 5.9 -3.1 0.0 66 2.4 NW 37 65 20 35 1016.5 1018.1 0.0
01/12:30am 6.1 -2.9 -0.2 64 2.6 NW 37 57 20 31 1016.0 1017.6 0.0
01/12:09am 5.8 -0.7 0.2 67 2.3 NNW 24 54 13 29 1016.4 1018.0 0.0
01/12:00am 3.7 -2.0 -0.9 72 1.8 NE 19 28 10 15 1016.9 1018.5 0.0
 
Date/Time
EST
Temp
°C
App
Temp
°C
Dew
Point
Rel
Hum
%
Delta-T
°C
Wind Press
QNH
hPa
Press
MSL
hPa
Rain
since 9 am
mm
Dir
 
Spd
km/h
Gust
km/h
Spd
kts
Gust
kts
31/11:30pm 4.1 -3.0 -1.3 68 2.1 NE 26 32 14 17 1017.2 1018.8 0.0
31/11:00pm 3.3 -3.8 -1.3 72 1.8 NE 26 33 14 18 1017.8 1019.4 0.0
31/10:30pm 3.7 -1.7 -1.3 70 1.9 N 17 28 9 15 1018.0 1019.6 0.0
31/10:00pm 1.7 -4.1 -1.4 80 1.2 ENE 19 22 10 12 1018.3 1019.9 0.0
31/09:30pm 1.2 -4.8 -1.4 83 1.0 NE 20 24 11 13 1018.3 1019.9 0.0
31/09:00pm 1.3 -3.4 -1.6 81 1.1 NE 13 19 7 10 1018.8 1020.5 0.0
31/08:30pm 2.2 -2.5 -1.8 75 1.5 NNE 13 17 7 9 1018.7 1020.4 0.0
31/08:00pm 3.0 -2.4 -1.0 75 1.5 NE 17 26 9 14 1018.3 1019.9 0.0
31/07:30pm 3.3 -1.6 -0.5 76 1.5 NNE 15 20 8 11 1018.2 1019.8 0.0
31/07:00pm 2.9 -1.1 -2.2 69 1.9 NNE 9 13 5 7 1017.9 1019.5 0.0
31/06:30pm 3.4 -1.0 -2.3 66 2.1 NNE 11 13 6 7 1018.0 1019.6 0.0
31/06:00pm 2.8 -0.9 -4.6 58 2.6 N 6 11 3 6 1018.0 1019.6 0.0
31/05:30pm 6.5 2.2 -4.6 45 4.1 NNW 9 15 5 8 1017.9 1019.5 0.0
31/05:00pm 8.2 3.9 -4.9 39 4.9 NNW 9 13 5 7 1017.9 1019.5 0.0
31/04:30pm 10.5 5.2 -3.9 36 5.6 NNW 15 20 8 11 1017.5 1019.1 0.0
31/04:00pm 11.5 5.7 -4.2 33 6.2 NNW 17 20 9 11 1017.4 1019.0 0.0
31/03:30pm 12.1 7.1 -4.1 32 6.4 NW 13 22 7 12 1017.5 1019.1 0.0
31/03:00pm 12.1 6.0 -3.7 33 6.3 NW 19 24 10 13 1017.6 1019.3 0.0
31/02:30pm 11.7 5.6 -2.5 37 5.8 NNW 20 28 11 15 1017.5 1019.1 0.0
31/02:00pm 11.8 5.5 -1.3 40 5.5 NNW 22 32 12 17 1017.5 1019.1 0.0
31/01:30pm 11.6 5.9 -0.9 42 5.3 NNW 19 30 10 16 1017.5 1019.1 0.0
31/01:00pm 11.7 7.1 -1.1 41 5.4 NW 13 22 7 12 1018.1 1019.7 0.0
31/12:30pm 11.7 7.1 -4.0 33 6.2 WNW 11 19 6 10 1018.4 1020.0 0.0
31/12:00pm 11.0 6.3 -2.1 40 5.4 NNW 13 24 7 13 1018.7 1020.4 0.0
31/11:30am 10.8 5.2 -3.3 37 5.6 W 17 22 9 12 1019.2 1020.8 0.0
31/11:00am 10.1 5.8 -1.9 43 4.9 WNW 11 19 6 10 1019.3 1020.9 0.0
31/10:30am 8.6 6.4 0.8 58 3.3 SE 2 9 1 5 1019.5 1021.2 0.0
31/10:00am 8.1 4.9 0.6 59 3.2 NNE 7 11 4 6 1019.5 1021.2 0.0
31/09:30am 7.2 4.1 1.5 67 2.4 NE 7 11 4 6 1019.4 1021.1 0.0
31/09:00am 5.0 3.2 1.3 77 1.5 CALM 0 0 0 0 1019.3 1020.9 0.0
31/08:30am 3.8 2.0 1.2 83 1.1 CALM 0 0 0 0 1019.2 1020.8 0.0
31/08:00am 3.4 0.8 0.8 83 1.1 N 4 7 2 4 1018.7 1020.4 0.0
31/07:30am 1.7 -0.3 0.2 90 0.6 CALM 0 0 0 0 1018.5 1020.2 0.0
31/07:00am 0.5 -1.7 -1.3 88 0.7 CALM 0 0 0 0 1017.9 1019.5 0.0
31/06:30am 0.9 -1.6 -1.2 86 0.8 N 2 11 1 6 1017.2 1018.8 0.0
31/06:00am 0.4 -3.3 -3.0 78 1.2 ESE 7 9 4 5 1016.7 1018.3 0.0
31/05:30am 3.1 -1.4 0.0 80 1.2 W 13 17 7 9 1016.2 1017.8 0.0
31/05:00am 2.9 -0.8 -0.2 80 1.2 W 9 11 5 6 1016.0 1017.6 0.0
31/04:30am 2.9 -0.4 -0.9 76 1.5 SSE 6 11 3 6 1015.8 1017.4 0.0
31/04:00am 4.5 -1.1 0.1 73 1.8 NW 19 26 10 14 1015.3 1016.9 0.0
31/03:30am 4.3 0.6 -0.1 73 1.8 NW 9 15 5 8 1015.7 1017.2 0.0
31/03:00am 5.2 0.0 0.4 71 2.0 NW 17 28 9 15 1015.6 1017.1 0.0
31/02:30am 5.5 -0.1 -0.1 67 2.3 NW 19 24 10 13 1015.8 1017.4 0.0
31/02:00am 5.1 -0.6 -0.7 66 2.3 NW 19 28 10 15 1015.8 1017.4 0.0
31/01:30am 5.3 -1.3 -0.7 65 2.4 WNW 24 35 13 19 1016.1 1017.7 0.0
31/01:00am 5.4 -1.7 -1.1 63 2.6 NW 26 39 14 21 1015.8 1017.4 0.0
31/12:30am 5.6 -1.2 -1.5 60 2.8 NW 24 32 13 17 1016.4 1018.0 0.0
31/12:00am 5.7 -1.5 -1.7 59 2.9 NW 26 37 14 20 1016.5 1018.1 0.0
 
Date/Time
EST
Temp
°C
App
Temp
°C
Dew
Point
Rel
Hum
%
Delta-T
°C
Wind Press
QNH
hPa
Press
MSL
hPa
Rain
since 9 am
mm
Dir
 
Spd
km/h
Gust
km/h
Spd
kts
Gust
kts
30/11:30pm 5.4 -0.4 -1.7 60 2.8 N 19 28 10 15 1016.5 1018.1 0.0
30/11:00pm 5.5 -1.7 -1.9 59 2.9 NW 26 35 14 19 1016.8 1018.4 0.0
30/10:30pm 5.3 -2.2 -1.6 61 2.7 NW 28 39 15 21 1016.7 1018.3 0.0
30/10:00pm 5.0 -0.7 -0.8 66 2.3 NNW 19 35 10 19 1016.9 1018.5 0.0
30/09:30pm 3.3 -2.1 -1.1 73 1.7 NNW 17 20 9 11 1016.8 1018.4 0.0
30/09:00pm 3.0 -1.7 -1.5 72 1.7 N 13 17 7 9 1016.8 1018.4 0.0
30/08:30pm 4.2 -0.7 -0.8 70 2.0 N 15 19 8 10 1017.1 1018.7 0.0
30/08:00pm 4.5 -0.1 -0.9 68 2.1 N 13 19 7 10 1016.9 1018.5 0.0
30/07:30pm 4.7 -0.3 -0.9 67 2.2 N 15 20 8 11 1017.1 1018.7 0.0
30/07:00pm 5.5 -2.8 -0.3 66 2.3 NW 33 50 18 27 1016.4 1018.0 0.0
30/06:50pm 5.7 -2.5 -0.8 63 2.6 NW 32 54 17 29 1015.8 1017.4 0.0
30/06:47pm 5.7 -1.3 -0.8 63 2.6 NW 26 43 14 23 1015.8 1017.4 0.0
30/06:30pm 5.5 1.0 -0.3 66 2.3 WNW 13 24 7 13 1015.7 1017.2 0.0
30/06:02pm 5.5 -2.8 -0.1 67 2.3 NNW 33 52 18 28 1014.8 1016.3 0.0
30/06:00pm 5.5 -3.2 -0.3 66 2.3 NNW 35 52 19 28 1014.9 1016.5 0.0
30/05:30pm 6.3 -3.5 0.0 64 2.6 NW 41 59 22 32 1015.2 1016.8 0.0
30/05:17pm 6.9 -0.4 -0.1 61 2.9 NW 28 46 15 25 1015.5 1017.0 0.0
30/05:00pm 7.3 1.7 0.1 60 3.0 N 19 26 10 14 1016.1 1017.7 0.0
30/04:30pm 8.4 2.6 -0.1 55 3.6 NW 20 37 11 20 1016.0 1017.6 0.0
30/04:00pm 7.6 3.0 -0.8 55 3.4 NNW 13 20 7 11 1016.7 1018.3 0.0
30/03:30pm 7.8 2.9 -3.1 46 4.2 NW 13 30 7 16 1016.8 1018.4 0.0
30/03:00pm 8.4 3.5 -3.4 43 4.6 NW 13 24 7 13 1017.1 1018.7 0.0
30/02:30pm 8.7 3.8 -3.5 42 4.7 WNW 13 24 7 13 1017.5 1019.1 0.0

Other Formats:

Comma delimited format used in spreadsheet applications
http://www.bom.gov.au/fwo/IDN60801/IDN60801.94921.axf

JavaScript Object Notation format (JSON) in row-major order
http://www.bom.gov.au/fwo/IDN60801/IDN60801.94921.json